Terminal Aerodrome Forecast
Issued by NWS Shreveport, LA

Home | Current Version | Previous Version | Text Only | Print | Product List | Glossary On
Versions: 1 2 3 4 5 6 7 8 9 10 11 12 13 14 15 16
722
FTUS44 KSHV 261154
TAFTXK
TAF
KTXK 261154Z 2612/2712 19006KT P6SM BKN015 BKN250
      TEMPO 2612/2615 6SM BR OVC009
     FM261500 18010KT P6SM BKN035 OVC250
     FM262000 18010KT P6SM VCTS BKN050CB OVC100
     FM262100 18010KT 4SM -TSRA BR BKN035CB OVC080
     FM270200 15006KT P6SM VCTS OVC050CB
     FM270900 15006KT P6SM VCTS BKN015 OVC050CB=

USA.gov is the U.S. government's official web portal to all federal, state and local government web resources and services.